Farmington, New York
Current Conditions -  °F | °C
As of 3:54 PM on Saturday 22 Nov 2014 (Local Time) from KROC Reporting Station
Overcast Overcast  
Wind Chill: 31°   Ceiling: 1700
Heat Index: 40°   Visibility: 10mi
Dew Point: 34°   Wind: 16mph
Humidity: 79%   Direction: 220°SW
Pressure: 29.98"   Gusts: NA
Location:  43.03°N, 77.33°W
Report Text: KROC 222054Z 22014KT 10SM OVC017 04/01 A2998 RMK AO2 RAE23 SLP162 P0000 60000 T00440011 56015
Loading
Personal Weather Stations






























Interactive Weather Map New forecast layout! Learn more

10-Day Weather Forecast

Advertisements
Track Severe Weather on mobile